sensor_id;sensor_type;location;lat;lon;timestamp;temperature;humidity
13616;DHT22;6879;51.368;6.782;2022-12-01T00:00:15;6.80;99.90
13616;DHT22;6879;51.368;6.782;2022-12-01T00:02:44;6.80;99.90
13616;DHT22;6879;51.368;6.782;2022-12-01T00:05:14;6.80;99.90
13616;DHT22;6879;51.368;6.782;2022-12-01T00:07:42;6.80;99.90
13616;DHT22;6879;51.368;6.782;2022-12-01T00:10:13;6.70;99.90
13616;DHT22;6879;51.368;6.782;2022-12-01T00:12:53;6.70;99.90
13616;DHT22;6879;51.368;6.782;2022-12-01T00:15:24;6.70;99.90
13616;DHT22;6879;51.368;6.782;2022-12-01T00:17:53;6.70;99.90
13616;DHT22;6879;51.368;6.782;2022-12-01T00:20:22;6.70;99.90
13616;DHT22;6879;51.368;6.782;2022-12-01T00:22:51;6.70;99.90
13616;DHT22;6879;51.368;6.782;2022-12-01T00:25:21;6.70;99.90
13616;DHT22;6879;51.368;6.782;2022-12-01T00:27:51;6.60;99.90
13616;DHT22;6879;51.368;6.782;2022-12-01T00:30:21;6.60;99.90
13616;DHT22;6879;51.368;6.782;2022-12-01T00:32:50;6.60;99.90
13616;DHT22;6879;51.368;6.782;2022-12-01T00:35:19;6.60;99.90
13616;DHT22;6879;51.368;6.782;2022-12-01T00:37:47;6.60;99.90
13616;DHT22;6879;51.368;6.782;2022-12-01T00:40:18;6.60;99.90
13616;DHT22;6879;51.368;6.782;2022-12-01T00:42:48;6.60;99.90
13616;DHT22;6879;51.368;6.782;2022-12-01T00:45:18;6.60;99.90
13616;DHT22;6879;51.368;6.782;2022-12-01T00:47:47;6.60;99.90
13616;DHT22;6879;51.368;6.782;2022-12-01T00:50:16;6.60;99.90
13616;DHT22;6879;51.368;6.782;2022-12-01T00:52:44;6.60;99.90
13616;DHT22;6879;51.368;6.782;2022-12-01T00:55:13;6.60;99.90
13616;DHT22;6879;51.368;6.782;2022-12-01T00:57:42;6.60;99.90
13616;DHT22;6879;51.368;6.782;2022-12-01T01:00:13;6.60;99.90
13616;DHT22;6879;51.368;6.782;2022-12-01T01:02:43;6.70;99.90
13616;DHT22;6879;51.368;6.782;2022-12-01T01:05:11;6.70;99.90
13616;DHT22;6879;51.368;6.782;2022-12-01T01:07:40;6.70;99.90
13616;DHT22;6879;51.368;6.782;2022-12-01T01:10:09;6.60;99.90
13616;DHT22;6879;51.368;6.782;2022-12-01T01:12:38;6.60;99.90
13616;DHT22;6879;51.368;6.782;2022-12-01T01:15:07;6.60;99.90
13616;DHT22;6879;51.368;6.782;2022-12-01T01:17:37;6.60;99.90
13616;DHT22;6879;51.368;6.782;2022-12-01T01:20:07;6.70;99.90
13616;DHT22;6879;51.368;6.782;2022-12-01T01:22:35;6.70;99.90
13616;DHT22;6879;51.368;6.782;2022-12-01T01:25:05;6.70;99.90
13616;DHT22;6879;51.368;6.782;2022-12-01T01:27:34;6.70;99.90
13616;DHT22;6879;51.368;6.782;2022-12-01T01:30:03;6.70;99.90
13616;DHT22;6879;51.368;6.782;2022-12-01T01:32:32;6.70;99.90
13616;DHT22;6879;51.368;6.782;2022-12-01T01:35:02;6.70;99.90
13616;DHT22;6879;51.368;6.782;2022-12-01T01:37:31;6.70;99.90
13616;DHT22;6879;51.368;6.782;2022-12-01T01:39:59;6.70;99.90
13616;DHT22;6879;51.368;6.782;2022-12-01T01:42:28;6.70;99.90
13616;DHT22;6879;51.368;6.782;2022-12-01T01:44:57;6.70;99.90
13616;DHT22;6879;51.368;6.782;2022-12-01T01:47:28;6.60;99.90
13616;DHT22;6879;51.368;6.782;2022-12-01T01:50:03;6.70;99.90
13616;DHT22;6879;51.368;6.782;2022-12-01T01:52:37;6.60;99.90
13616;DHT22;6879;51.368;6.782;2022-12-01T01:55:06;6.70;99.90
13616;DHT22;6879;51.368;6.782;2022-12-01T01:57:35;6.70;99.90
13616;DHT22;6879;51.368;6.782;2022-12-01T02:00:09;6.60;99.90
13616;DHT22;6879;51.368;6.782;2022-12-01T02:02:39;6.60;99.90
13616;DHT22;6879;51.368;6.782;2022-12-01T02:05:15;6.60;99.90
13616;DHT22;6879;51.368;6.782;2022-12-01T02:07:45;6.60;99.90
13616;DHT22;6879;51.368;6.782;2022-12-01T02:10:15;6.60;99.90
13616;DHT22;6879;51.368;6.782;2022-12-01T02:13:03;6.50;99.90
13616;DHT22;6879;51.368;6.782;2022-12-01T02:15:38;6.50;99.90
13616;DHT22;6879;51.368;6.782;2022-12-01T02:18:20;6.50;99.90
13616;DHT22;6879;51.368;6.782;2022-12-01T02:27:27;6.50;99.90
13616;DHT22;6879;51.368;6.782;2022-12-01T02:30:13;6.60;99.90
13616;DHT22;6879;51.368;6.782;2022-12-01T02:32:56;6.60;99.90
13616;DHT22;6879;51.368;6.782;2022-12-01T02:35:33;6.60;99.90
13616;DHT22;6879;51.368;6.782;2022-12-01T02:38:10;6.60;99.90
13616;DHT22;6879;51.368;6.782;2022-12-01T02:40:43;6.50;99.90
13616;DHT22;6879;51.368;6.782;2022-12-01T02:43:18;6.60;99.90
13616;DHT22;6879;51.368;6.782;2022-12-01T02:45:52;6.60;99.90
13616;DHT22;6879;51.368;6.782;2022-12-01T02:48:26;6.60;99.90
13616;DHT22;6879;51.368;6.782;2022-12-01T02:50:58;6.60;99.90
13616;DHT22;6879;51.368;6.782;2022-12-01T02:53:28;6.60;99.90
13616;DHT22;6879;51.368;6.782;2022-12-01T02:55:58;6.60;99.90
13616;DHT22;6879;51.368;6.782;2022-12-01T02:58:26;6.60;99.90
13616;DHT22;6879;51.368;6.782;2022-12-01T03:01:08;6.60;99.90
13616;DHT22;6879;51.368;6.782;2022-12-01T03:03:51;6.60;99.90
13616;DHT22;6879;51.368;6.782;2022-12-01T03:06:35;6.60;99.90
13616;DHT22;6879;51.368;6.782;2022-12-01T03:09:16;6.60;99.90
13616;DHT22;6879;51.368;6.782;2022-12-01T03:11:52;6.70;99.90
13616;DHT22;6879;51.368;6.782;2022-12-01T03:14:32;6.70;99.90
13616;DHT22;6879;51.368;6.782;2022-12-01T03:17:06;6.60;99.90
13616;DHT22;6879;51.368;6.782;2022-12-01T03:19:40;6.60;99.90
13616;DHT22;6879;51.368;6.782;2022-12-01T03:22:14;6.60;99.90
13616;DHT22;6879;51.368;6.782;2022-12-01T03:24:46;6.60;99.90
13616;DHT22;6879;51.368;6.782;2022-12-01T03:27:18;6.60;99.90
13616;DHT22;6879;51.368;6.782;2022-12-01T03:29:50;6.70;99.90
13616;DHT22;6879;51.368;6.782;2022-12-01T03:32:26;6.70;99.90
13616;DHT22;6879;51.368;6.782;2022-12-01T03:35:03;6.70;99.90
13616;DHT22;6879;51.368;6.782;2022-12-01T03:37:34;6.70;99.90
13616;DHT22;6879;51.368;6.782;2022-12-01T03:40:07;6.70;99.90
13616;DHT22;6879;51.368;6.782;2022-12-01T03:42:41;6.70;99.90
13616;DHT22;6879;51.368;6.782;2022-12-01T03:45:15;6.60;99.90
13616;DHT22;6879;51.368;6.782;2022-12-01T03:47:45;6.60;99.90
13616;DHT22;6879;51.368;6.782;2022-12-01T03:50:16;6.60;99.90
13616;DHT22;6879;51.368;6.782;2022-12-01T03:52:51;6.60;99.90
13616;DHT22;6879;51.368;6.782;2022-12-01T03:55:23;6.60;99.90
13616;DHT22;6879;51.368;6.782;2022-12-01T03:57:56;6.70;99.90
13616;DHT22;6879;51.368;6.782;2022-12-01T04:00:26;6.60;99.90
13616;DHT22;6879;51.368;6.782;2022-12-01T04:02:56;6.70;99.90
13616;DHT22;6879;51.368;6.782;2022-12-01T04:05:27;6.60;99.90
13616;DHT22;6879;51.368;6.782;2022-12-01T04:07:56;6.60;99.90
13616;DHT22;6879;51.368;6.782;2022-12-01T04:10:28;6.60;99.90
13616;DHT22;6879;51.368;6.782;2022-12-01T04:12:56;6.60;99.90
13616;DHT22;6879;51.368;6.782;2022-12-01T04:15:26;6.60;99.90
13616;DHT22;6879;51.368;6.782;2022-12-01T04:17:55;6.60;99.90
13616;DHT22;6879;51.368;6.782;2022-12-01T04:20:23;6.60;99.90
13616;DHT22;6879;51.368;6.782;2022-12-01T04:22:53;6.60;99.90
13616;DHT22;6879;51.368;6.782;2022-12-01T04:25:22;6.60;99.90
13616;DHT22;6879;51.368;6.782;2022-12-01T04:27:50;6.60;99.90
13616;DHT22;6879;51.368;6.782;2022-12-01T04:30:19;6.60;99.90
13616;DHT22;6879;51.368;6.782;2022-12-01T04:32:48;6.70;99.90
13616;DHT22;6879;51.368;6.782;2022-12-01T04:35:17;6.70;99.90
13616;DHT22;6879;51.368;6.782;2022-12-01T04:37:45;6.70;99.90
13616;DHT22;6879;51.368;6.782;2022-12-01T04:40:16;6.60;99.90
13616;DHT22;6879;51.368;6.782;2022-12-01T04:42:45;6.70;99.90
13616;DHT22;6879;51.368;6.782;2022-12-01T04:45:13;6.70;99.90
13616;DHT22;6879;51.368;6.782;2022-12-01T04:47:42;6.70;99.90
13616;DHT22;6879;51.368;6.782;2022-12-01T04:50:11;6.70;99.90
13616;DHT22;6879;51.368;6.782;2022-12-01T04:52:39;6.70;99.90
13616;DHT22;6879;51.368;6.782;2022-12-01T04:55:09;6.70;99.90
13616;DHT22;6879;51.368;6.782;2022-12-01T04:57:39;6.60;99.90
13616;DHT22;6879;51.368;6.782;2022-12-01T05:00:09;6.60;99.90
13616;DHT22;6879;51.368;6.782;2022-12-01T05:02:39;6.60;99.90
13616;DHT22;6879;51.368;6.782;2022-12-01T05:05:10;6.60;99.90
13616;DHT22;6879;51.368;6.782;2022-12-01T05:07:40;6.60;99.90
13616;DHT22;6879;51.368;6.782;2022-12-01T05:10:09;6.60;99.90
13616;DHT22;6879;51.368;6.782;2022-12-01T05:12:41;6.60;99.90
13616;DHT22;6879;51.368;6.782;2022-12-01T05:15:10;6.60;99.90
13616;DHT22;6879;51.368;6.782;2022-12-01T05:17:39;6.50;99.90
13616;DHT22;6879;51.368;6.782;2022-12-01T05:20:20;6.40;99.90
13616;DHT22;6879;51.368;6.782;2022-12-01T05:23:03;6.50;99.90
13616;DHT22;6879;51.368;6.782;2022-12-01T05:25:34;6.40;99.90
13616;DHT22;6879;51.368;6.782;2022-12-01T05:28:05;6.40;99.90
13616;DHT22;6879;51.368;6.782;2022-12-01T05:30:33;6.50;99.90
13616;DHT22;6879;51.368;6.782;2022-12-01T05:33:02;6.50;99.90
13616;DHT22;6879;51.368;6.782;2022-12-01T05:35:32;6.50;99.90
13616;DHT22;6879;51.368;6.782;2022-12-01T05:38:01;6.50;99.90
13616;DHT22;6879;51.368;6.782;2022-12-01T05:40:34;6.50;99.90
13616;DHT22;6879;51.368;6.782;2022-12-01T05:43:05;6.50;99.90
13616;DHT22;6879;51.368;6.782;2022-12-01T05:45:34;6.50;99.90
13616;DHT22;6879;51.368;6.782;2022-12-01T05:48:03;6.50;99.90
13616;DHT22;6879;51.368;6.782;2022-12-01T05:50:37;6.50;99.90
13616;DHT22;6879;51.368;6.782;2022-12-01T05:53:06;6.40;99.90
13616;DHT22;6879;51.368;6.782;2022-12-01T05:55:35;6.40;99.90
13616;DHT22;6879;51.368;6.782;2022-12-01T05:58:05;6.30;99.90
13616;DHT22;6879;51.368;6.782;2022-12-01T06:00:35;6.30;99.90
13616;DHT22;6879;51.368;6.782;2022-12-01T06:03:11;6.40;99.90
13616;DHT22;6879;51.368;6.782;2022-12-01T06:05:40;6.40;99.90
13616;DHT22;6879;51.368;6.782;2022-12-01T06:08:09;6.40;99.90
13616;DHT22;6879;51.368;6.782;2022-12-01T06:10:38;6.40;99.90
13616;DHT22;6879;51.368;6.782;2022-12-01T06:13:08;6.40;99.90
13616;DHT22;6879;51.368;6.782;2022-12-01T06:15:37;6.40;99.90
13616;DHT22;6879;51.368;6.782;2022-12-01T06:18:06;6.40;99.90
13616;DHT22;6879;51.368;6.782;2022-12-01T06:20:35;6.40;99.90
13616;DHT22;6879;51.368;6.782;2022-12-01T06:49:52;6.40;99.90
13616;DHT22;6879;51.368;6.782;2022-12-01T06:52:21;6.30;99.90
13616;DHT22;6879;51.368;6.782;2022-12-01T06:54:50;6.40;99.90
13616;DHT22;6879;51.368;6.782;2022-12-01T06:57:19;6.50;99.90
13616;DHT22;6879;51.368;6.782;2022-12-01T06:59:48;6.40;99.90
13616;DHT22;6879;51.368;6.782;2022-12-01T07:02:17;6.40;99.90
13616;DHT22;6879;51.368;6.782;2022-12-01T07:04:46;6.40;99.90
13616;DHT22;6879;51.368;6.782;2022-12-01T07:07:16;6.40;99.90
13616;DHT22;6879;51.368;6.782;2022-12-01T07:09:44;6.40;99.90
13616;DHT22;6879;51.368;6.782;2022-12-01T07:12:14;6.40;99.90
13616;DHT22;6879;51.368;6.782;2022-12-01T07:14:44;6.40;99.90
13616;DHT22;6879;51.368;6.782;2022-12-01T07:17:13;6.50;99.90
13616;DHT22;6879;51.368;6.782;2022-12-01T07:19:42;6.40;99.90
13616;DHT22;6879;51.368;6.782;2022-12-01T07:22:11;6.40;99.90
13616;DHT22;6879;51.368;6.782;2022-12-01T07:24:41;6.40;99.90
13616;DHT22;6879;51.368;6.782;2022-12-01T07:27:10;6.40;99.90
13616;DHT22;6879;51.368;6.782;2022-12-01T07:29:39;6.40;99.90
13616;DHT22;6879;51.368;6.782;2022-12-01T07:32:08;6.40;99.90
13616;DHT22;6879;51.368;6.782;2022-12-01T07:34:36;6.30;99.90
13616;DHT22;6879;51.368;6.782;2022-12-01T07:37:05;6.40;99.90
13616;DHT22;6879;51.368;6.782;2022-12-01T07:39:34;6.40;99.90
13616;DHT22;6879;51.368;6.782;2022-12-01T07:42:04;6.50;99.90
13616;DHT22;6879;51.368;6.782;2022-12-01T07:44:33;6.40;99.90
13616;DHT22;6879;51.368;6.782;2022-12-01T07:47:02;6.40;99.90
13616;DHT22;6879;51.368;6.782;2022-12-01T07:49:31;6.40;99.90
13616;DHT22;6879;51.368;6.782;2022-12-01T07:52:00;6.40;99.90
13616;DHT22;6879;51.368;6.782;2022-12-01T07:54:29;6.40;99.90
13616;DHT22;6879;51.368;6.782;2022-12-01T07:56:57;6.40;99.90
13616;DHT22;6879;51.368;6.782;2022-12-01T07:59:28;6.40;99.90
13616;DHT22;6879;51.368;6.782;2022-12-01T08:01:57;6.50;99.90
13616;DHT22;6879;51.368;6.782;2022-12-01T08:04:26;6.50;99.90
13616;DHT22;6879;51.368;6.782;2022-12-01T08:06:55;6.50;99.90
13616;DHT22;6879;51.368;6.782;2022-12-01T08:09:23;6.50;99.90
13616;DHT22;6879;51.368;6.782;2022-12-01T08:11:55;6.50;99.90
13616;DHT22;6879;51.368;6.782;2022-12-01T08:14:27;6.50;99.90
13616;DHT22;6879;51.368;6.782;2022-12-01T08:16:56;6.50;99.90
13616;DHT22;6879;51.368;6.782;2022-12-01T08:19:25;6.60;99.90
13616;DHT22;6879;51.368;6.782;2022-12-01T08:21:56;6.60;99.90
13616;DHT22;6879;51.368;6.782;2022-12-01T08:24:25;6.60;99.90
13616;DHT22;6879;51.368;6.782;2022-12-01T08:26:53;6.70;99.90
13616;DHT22;6879;51.368;6.782;2022-12-01T08:29:22;6.70;99.90
13616;DHT22;6879;51.368;6.782;2022-12-01T08:31:53;6.70;99.90
13616;DHT22;6879;51.368;6.782;2022-12-01T08:34:24;6.60;99.90
13616;DHT22;6879;51.368;6.782;2022-12-01T08:36:55;6.70;99.90
13616;DHT22;6879;51.368;6.782;2022-12-01T08:39:24;6.70;99.90
13616;DHT22;6879;51.368;6.782;2022-12-01T08:41:53;6.80;99.90
13616;DHT22;6879;51.368;6.782;2022-12-01T08:44:21;6.80;99.90
13616;DHT22;6879;51.368;6.782;2022-12-01T08:46:50;6.80;99.90
13616;DHT22;6879;51.368;6.782;2022-12-01T08:49:22;6.80;99.90
13616;DHT22;6879;51.368;6.782;2022-12-01T08:51:53;6.80;99.90
13616;DHT22;6879;51.368;6.782;2022-12-01T08:54:22;6.80;99.90
13616;DHT22;6879;51.368;6.782;2022-12-01T08:56:51;6.80;99.90
13616;DHT22;6879;51.368;6.782;2022-12-01T08:59:19;6.80;99.90
13616;DHT22;6879;51.368;6.782;2022-12-01T09:01:48;6.80;99.90
13616;DHT22;6879;51.368;6.782;2022-12-01T09:04:23;6.80;99.90
13616;DHT22;6879;51.368;6.782;2022-12-01T09:06:53;6.80;99.90
13616;DHT22;6879;51.368;6.782;2022-12-01T09:09:25;6.80;99.90
13616;DHT22;6879;51.368;6.782;2022-12-01T09:11:54;6.80;99.90
13616;DHT22;6879;51.368;6.782;2022-12-01T09:14:25;6.80;99.90
13616;DHT22;6879;51.368;6.782;2022-12-01T09:16:54;6.80;99.90
13616;DHT22;6879;51.368;6.782;2022-12-01T09:19:25;6.80;99.90
13616;DHT22;6879;51.368;6.782;2022-12-01T09:21:54;6.80;99.90
13616;DHT22;6879;51.368;6.782;2022-12-01T09:24:23;6.80;99.90
13616;DHT22;6879;51.368;6.782;2022-12-01T09:26:54;6.80;99.90
13616;DHT22;6879;51.368;6.782;2022-12-01T09:29:24;6.90;99.90
13616;DHT22;6879;51.368;6.782;2022-12-01T09:31:54;7.00;99.90
13616;DHT22;6879;51.368;6.782;2022-12-01T09:34:25;7.00;99.90
13616;DHT22;6879;51.368;6.782;2022-12-01T09:36:59;7.00;99.90
13616;DHT22;6879;51.368;6.782;2022-12-01T09:39:32;7.00;99.90
13616;DHT22;6879;51.368;6.782;2022-12-01T09:42:09;6.90;99.90
13616;DHT22;6879;51.368;6.782;2022-12-01T09:44:42;6.90;99.90
13616;DHT22;6879;51.368;6.782;2022-12-01T09:47:15;6.90;99.90
13616;DHT22;6879;51.368;6.782;2022-12-01T09:49:53;6.90;99.90
13616;DHT22;6879;51.368;6.782;2022-12-01T09:52:28;7.00;99.90
13616;DHT22;6879;51.368;6.782;2022-12-01T09:54:59;7.00;99.90
13616;DHT22;6879;51.368;6.782;2022-12-01T09:57:32;7.00;99.90
13616;DHT22;6879;51.368;6.782;2022-12-01T10:00:06;7.00;99.90
13616;DHT22;6879;51.368;6.782;2022-12-01T10:02:41;7.10;99.90
13616;DHT22;6879;51.368;6.782;2022-12-01T10:05:15;7.10;99.90
13616;DHT22;6879;51.368;6.782;2022-12-01T10:07:53;7.00;99.90
13616;DHT22;6879;51.368;6.782;2022-12-01T10:10:32;7.00;99.90
13616;DHT22;6879;51.368;6.782;2022-12-01T10:13:02;7.00;99.90
13616;DHT22;6879;51.368;6.782;2022-12-01T10:15:49;6.90;99.90
13616;DHT22;6879;51.368;6.782;2022-12-01T10:18:31;6.90;99.90
13616;DHT22;6879;51.368;6.782;2022-12-01T10:21:09;6.90;99.90
13616;DHT22;6879;51.368;6.782;2022-12-01T10:23:55;6.90;99.90
13616;DHT22;6879;51.368;6.782;2022-12-01T10:26:33;6.90;99.90
13616;DHT22;6879;51.368;6.782;2022-12-01T10:29:10;7.00;99.90
13616;DHT22;6879;51.368;6.782;2022-12-01T10:31:49;7.00;99.90
13616;DHT22;6879;51.368;6.782;2022-12-01T10:34:21;7.00;99.90
13616;DHT22;6879;51.368;6.782;2022-12-01T10:36:52;7.10;99.90
13616;DHT22;6879;51.368;6.782;2022-12-01T10:39:26;6.90;99.90
13616;DHT22;6879;51.368;6.782;2022-12-01T10:42:03;6.90;99.90
13616;DHT22;6879;51.368;6.782;2022-12-01T10:44:34;6.90;99.90
13616;DHT22;6879;51.368;6.782;2022-12-01T10:47:03;6.80;99.90
13616;DHT22;6879;51.368;6.782;2022-12-01T10:49:40;6.80;99.90
13616;DHT22;6879;51.368;6.782;2022-12-01T10:52:32;6.80;99.90
13616;DHT22;6879;51.368;6.782;2022-12-01T10:55:02;6.80;99.90
13616;DHT22;6879;51.368;6.782;2022-12-01T10:57:31;6.90;99.90
13616;DHT22;6879;51.368;6.782;2022-12-01T11:00:06;6.90;99.90
13616;DHT22;6879;51.368;6.782;2022-12-01T11:02:35;6.80;99.90
13616;DHT22;6879;51.368;6.782;2022-12-01T11:05:06;6.70;99.90
13616;DHT22;6879;51.368;6.782;2022-12-01T11:07:48;6.80;99.90
13616;DHT22;6879;51.368;6.782;2022-12-01T11:10:18;6.80;99.90
13616;DHT22;6879;51.368;6.782;2022-12-01T11:12:54;6.80;99.90
13616;DHT22;6879;51.368;6.782;2022-12-01T11:15:25;6.90;99.90
13616;DHT22;6879;51.368;6.782;2022-12-01T11:18:00;6.70;99.90
13616;DHT22;6879;51.368;6.782;2022-12-01T11:20:33;6.70;99.90
13616;DHT22;6879;51.368;6.782;2022-12-01T11:23:25;6.70;99.90
13616;DHT22;6879;51.368;6.782;2022-12-01T11:26:01;6.60;99.90
13616;DHT22;6879;51.368;6.782;2022-12-01T11:28:39;6.70;99.90
13616;DHT22;6879;51.368;6.782;2022-12-01T11:31:36;6.60;99.90
13616;DHT22;6879;51.368;6.782;2022-12-01T11:34:13;6.70;99.90
13616;DHT22;6879;51.368;6.782;2022-12-01T11:36:46;6.70;99.90
13616;DHT22;6879;51.368;6.782;2022-12-01T11:39:24;6.70;99.90
13616;DHT22;6879;51.368;6.782;2022-12-01T11:41:55;6.80;99.90
13616;DHT22;6879;51.368;6.782;2022-12-01T11:44:24;7.00;99.90
13616;DHT22;6879;51.368;6.782;2022-12-01T11:47:14;7.00;99.90
13616;DHT22;6879;51.368;6.782;2022-12-01T11:49:53;7.10;99.90
13616;DHT22;6879;51.368;6.782;2022-12-01T11:52:27;7.10;99.90
13616;DHT22;6879;51.368;6.782;2022-12-01T11:55:21;7.20;99.90
13616;DHT22;6879;51.368;6.782;2022-12-01T12:00:37;7.30;99.90
13616;DHT22;6879;51.368;6.782;2022-12-01T12:02:33;7.50;99.90
13616;DHT22;6879;51.368;6.782;2022-12-01T12:08:25;8.30;99.90
13616;DHT22;6879;51.368;6.782;2022-12-01T12:11:20;8.70;99.90
13616;DHT22;6879;51.368;6.782;2022-12-01T12:14:11;9.50;99.90
13616;DHT22;6879;51.368;6.782;2022-12-01T12:18:01;9.80;99.90
13616;DHT22;6879;51.368;6.782;2022-12-01T12:20:48;9.50;99.90
13616;DHT22;6879;51.368;6.782;2022-12-01T12:23:29;9.10;99.90
13616;DHT22;6879;51.368;6.782;2022-12-01T12:26:06;8.60;99.90
13616;DHT22;6879;51.368;6.782;2022-12-01T12:28:50;8.30;99.90
13616;DHT22;6879;51.368;6.782;2022-12-01T12:31:27;8.10;99.90
13616;DHT22;6879;51.368;6.782;2022-12-01T12:34:06;8.10;99.90
13616;DHT22;6879;51.368;6.782;2022-12-01T12:36:45;8.20;99.90
13616;DHT22;6879;51.368;6.782;2022-12-01T12:39:30;8.30;99.90
13616;DHT22;6879;51.368;6.782;2022-12-01T12:42:03;8.40;99.90
13616;DHT22;6879;51.368;6.782;2022-12-01T12:44:46;8.20;99.90
13616;DHT22;6879;51.368;6.782;2022-12-01T12:47:29;8.10;99.90
13616;DHT22;6879;51.368;6.782;2022-12-01T12:50:16;7.90;99.90
13616;DHT22;6879;51.368;6.782;2022-12-01T12:52:48;7.90;99.90
13616;DHT22;6879;51.368;6.782;2022-12-01T12:55:21;7.90;99.90
13616;DHT22;6879;51.368;6.782;2022-12-01T12:57:53;7.90;99.90
13616;DHT22;6879;51.368;6.782;2022-12-01T13:00:30;7.80;99.90
13616;DHT22;6879;51.368;6.782;2022-12-01T13:03:03;7.80;99.90
13616;DHT22;6879;51.368;6.782;2022-12-01T13:05:39;7.90;99.90
13616;DHT22;6879;51.368;6.782;2022-12-01T13:08:12;7.90;99.90
13616;DHT22;6879;51.368;6.782;2022-12-01T13:10:49;7.80;99.90
13616;DHT22;6879;51.368;6.782;2022-12-01T13:13:24;7.90;99.90
13616;DHT22;6879;51.368;6.782;2022-12-01T13:16:03;8.10;99.90
13616;DHT22;6879;51.368;6.782;2022-12-01T13:18:39;8.00;99.90
13616;DHT22;6879;51.368;6.782;2022-12-01T13:21:14;7.90;99.90
13616;DHT22;6879;51.368;6.782;2022-12-01T13:23:47;7.90;99.90
13616;DHT22;6879;51.368;6.782;2022-12-01T13:26:18;7.90;99.90
13616;DHT22;6879;51.368;6.782;2022-12-01T13:28:53;7.80;99.90
13616;DHT22;6879;51.368;6.782;2022-12-01T13:31:47;7.80;99.90
13616;DHT22;6879;51.368;6.782;2022-12-01T13:34:32;7.60;99.90
13616;DHT22;6879;51.368;6.782;2022-12-01T13:37:06;7.70;99.90
13616;DHT22;6879;51.368;6.782;2022-12-01T13:39:37;7.60;99.90
13616;DHT22;6879;51.368;6.782;2022-12-01T13:42:07;7.70;99.90
13616;DHT22;6879;51.368;6.782;2022-12-01T13:44:51;7.80;99.90
13616;DHT22;6879;51.368;6.782;2022-12-01T13:47:50;7.90;99.90
13616;DHT22;6879;51.368;6.782;2022-12-01T13:51:02;7.90;99.90
13616;DHT22;6879;51.368;6.782;2022-12-01T13:53:40;7.90;99.90
13616;DHT22;6879;51.368;6.782;2022-12-01T13:56:32;7.90;99.90
13616;DHT22;6879;51.368;6.782;2022-12-01T13:59:38;7.80;99.90
13616;DHT22;6879;51.368;6.782;2022-12-01T14:02:15;7.70;99.90
13616;DHT22;6879;51.368;6.782;2022-12-01T14:04:46;7.60;99.90
13616;DHT22;6879;51.368;6.782;2022-12-01T14:07:24;7.60;99.90
13616;DHT22;6879;51.368;6.782;2022-12-01T14:10:06;7.70;99.90
13616;DHT22;6879;51.368;6.782;2022-12-01T14:12:36;7.70;99.90
13616;DHT22;6879;51.368;6.782;2022-12-01T14:15:31;7.70;99.90
13616;DHT22;6879;51.368;6.782;2022-12-01T14:18:05;7.60;99.90
13616;DHT22;6879;51.368;6.782;2022-12-01T14:20:44;7.60;99.90
13616;DHT22;6879;51.368;6.782;2022-12-01T14:23:20;7.50;99.90
13616;DHT22;6879;51.368;6.782;2022-12-01T14:26:08;7.50;99.90
13616;DHT22;6879;51.368;6.782;2022-12-01T14:34:57;7.60;99.90
13616;DHT22;6879;51.368;6.782;2022-12-01T14:37:34;7.60;99.90
13616;DHT22;6879;51.368;6.782;2022-12-01T14:40:07;7.50;99.90
13616;DHT22;6879;51.368;6.782;2022-12-01T14:42:40;7.40;99.90
13616;DHT22;6879;51.368;6.782;2022-12-01T14:45:31;7.30;99.90
13616;DHT22;6879;51.368;6.782;2022-12-01T14:48:02;7.40;99.90
13616;DHT22;6879;51.368;6.782;2022-12-01T14:50:38;7.40;99.90
13616;DHT22;6879;51.368;6.782;2022-12-01T14:53:25;7.30;99.90
13616;DHT22;6879;51.368;6.782;2022-12-01T14:55:57;7.30;99.90
13616;DHT22;6879;51.368;6.782;2022-12-01T14:58:33;7.20;99.90
13616;DHT22;6879;51.368;6.782;2022-12-01T15:01:09;7.20;99.90
13616;DHT22;6879;51.368;6.782;2022-12-01T15:03:40;7.20;99.90
13616;DHT22;6879;51.368;6.782;2022-12-01T15:06:10;7.20;99.90
13616;DHT22;6879;51.368;6.782;2022-12-01T15:09:04;7.20;99.90
13616;DHT22;6879;51.368;6.782;2022-12-01T15:11:56;7.10;99.90
13616;DHT22;6879;51.368;6.782;2022-12-01T15:14:31;7.10;99.90
13616;DHT22;6879;51.368;6.782;2022-12-01T15:17:03;7.10;99.90
13616;DHT22;6879;51.368;6.782;2022-12-01T15:19:44;7.00;99.90
13616;DHT22;6879;51.368;6.782;2022-12-01T15:22:16;7.00;99.90
13616;DHT22;6879;51.368;6.782;2022-12-01T15:25:10;7.00;99.90
13616;DHT22;6879;51.368;6.782;2022-12-01T15:28:00;7.00;99.90
13616;DHT22;6879;51.368;6.782;2022-12-01T15:30:30;7.00;99.90
13616;DHT22;6879;51.368;6.782;2022-12-01T15:33:00;6.90;99.90
13616;DHT22;6879;51.368;6.782;2022-12-01T15:35:29;6.90;99.90
13616;DHT22;6879;51.368;6.782;2022-12-01T15:37:58;6.80;99.90
13616;DHT22;6879;51.368;6.782;2022-12-01T15:40:32;6.80;99.90
13616;DHT22;6879;51.368;6.782;2022-12-01T15:43:22;6.80;99.90
13616;DHT22;6879;51.368;6.782;2022-12-01T15:45:55;6.70;99.90
13616;DHT22;6879;51.368;6.782;2022-12-01T15:48:27;6.70;99.90
13616;DHT22;6879;51.368;6.782;2022-12-01T15:51:01;6.70;99.90
13616;DHT22;6879;51.368;6.782;2022-12-01T15:53:33;6.70;99.90
13616;DHT22;6879;51.368;6.782;2022-12-01T15:56:07;6.60;99.90
13616;DHT22;6879;51.368;6.782;2022-12-01T15:58:41;6.70;99.90
13616;DHT22;6879;51.368;6.782;2022-12-01T16:01:13;6.60;99.90
13616;DHT22;6879;51.368;6.782;2022-12-01T16:03:52;6.60;99.90
13616;DHT22;6879;51.368;6.782;2022-12-01T16:06:24;6.60;99.90
13616;DHT22;6879;51.368;6.782;2022-12-01T16:08:56;6.50;99.90
13616;DHT22;6879;51.368;6.782;2022-12-01T16:11:28;6.50;99.90
13616;DHT22;6879;51.368;6.782;2022-12-01T16:14:00;6.50;99.90
13616;DHT22;6879;51.368;6.782;2022-12-01T16:16:36;6.50;99.90
13616;DHT22;6879;51.368;6.782;2022-12-01T16:19:23;6.50;99.90
13616;DHT22;6879;51.368;6.782;2022-12-01T16:21:56;6.50;99.90
13616;DHT22;6879;51.368;6.782;2022-12-01T16:24:29;6.50;99.90
13616;DHT22;6879;51.368;6.782;2022-12-01T16:27:03;6.50;99.90
13616;DHT22;6879;51.368;6.782;2022-12-01T16:29:41;6.40;99.90
13616;DHT22;6879;51.368;6.782;2022-12-01T16:32:17;6.40;99.90
13616;DHT22;6879;51.368;6.782;2022-12-01T16:34:49;6.40;99.90
13616;DHT22;6879;51.368;6.782;2022-12-01T16:37:18;6.40;99.90
13616;DHT22;6879;51.368;6.782;2022-12-01T16:39:48;6.40;99.90
13616;DHT22;6879;51.368;6.782;2022-12-01T16:42:20;6.40;99.90
13616;DHT22;6879;51.368;6.782;2022-12-01T16:44:50;6.30;99.90
13616;DHT22;6879;51.368;6.782;2022-12-01T16:47:21;6.30;99.90
13616;DHT22;6879;51.368;6.782;2022-12-01T16:49:51;6.30;99.90
13616;DHT22;6879;51.368;6.782;2022-12-01T16:52:20;6.30;99.90
13616;DHT22;6879;51.368;6.782;2022-12-01T16:55:29;6.30;99.90
13616;DHT22;6879;51.368;6.782;2022-12-01T16:58:01;6.30;99.90
13616;DHT22;6879;51.368;6.782;2022-12-01T17:00:31;6.30;99.90
13616;DHT22;6879;51.368;6.782;2022-12-01T17:03:06;6.30;99.90
13616;DHT22;6879;51.368;6.782;2022-12-01T17:05:42;6.30;99.90
13616;DHT22;6879;51.368;6.782;2022-12-01T17:08:13;6.30;99.90
13616;DHT22;6879;51.368;6.782;2022-12-01T17:10:44;6.30;99.90
13616;DHT22;6879;51.368;6.782;2022-12-01T17:13:17;6.30;99.90
13616;DHT22;6879;51.368;6.782;2022-12-01T17:15:52;6.30;99.90
13616;DHT22;6879;51.368;6.782;2022-12-01T17:18:23;6.20;99.90
13616;DHT22;6879;51.368;6.782;2022-12-01T17:20:56;6.20;99.90
13616;DHT22;6879;51.368;6.782;2022-12-01T17:23:25;6.30;99.90
13616;DHT22;6879;51.368;6.782;2022-12-01T17:25:55;6.30;99.90
13616;DHT22;6879;51.368;6.782;2022-12-01T17:28:25;6.40;99.90